PWSweather.com
Personal Weather Stations
Station Observations

Castel Di SangroIT

Lat: 41.7738101, Lon: 14.1233667

Elevation: 800

Station Type: PCE FWS 20

http://www.meteocasteldisangro.altervista.org

Latest ConditionsUpdated 5:00:12 PM GMT+01:01 Friday, May 24, 2019
Currently Today's Max Today's Min Today's Average
Temperature 60.1°F15.6°C 65.5°F18.6°C 39.6°F4.2°C 53.5°F11.9°C
Dew Point 54.2°F12.3°C 55.1°F12.8°C 39.3°F4.1°C 47.2°F8.4°C
Winds 3.9 mph SSE6.3 kmh SSE 7.4 mph -11.9 kmh - - 2.3 mph 3.7 kmh
Wind Gusts 9.2 mph14.8 kmh 13.6 mph21.9 kmh - -
Humidity 81% 99% 52% 81%
Pressure 29.83 in1010.2 mb 29.93 in1013.5 mb 29.83 in1010.2 mb -
Hour Temp Dew Point Humidity Winds Wind Gusts Pressure Precip Precip Rate Daily Precip Total
05:00 PM 60.1°F15.6°C 54.2°F12.3°C 81% 3.9 mph SSE6.3 kmh SSE 9.2 mph14.8 kmh 29.83 in1010.2 mb 0.00 in0.0 mm 0.00 in0.0 mm 0.00 in0.0 mm
04:50 PM 61.0°F16.1°C 54.8°F12.7°C 80% 3.9 mph SSE6.3 kmh SSE 9.2 mph14.8 kmh 29.84 in1010.5 mb 0.00 in0.0 mm 0.00 in0.0 mm 0.00 in0.0 mm
04:40 PM 61.3°F16.3°C 54.8°F12.7°C 79% 3.3 mph S5.3 kmh S 8.3 mph13.4 kmh 29.83 in1010.2 mb 0.00 in0.0 mm 0.00 in0.0 mm 0.00 in0.0 mm
04:30 PM 61.5°F16.4°C 54.6°F12.6°C 78% 3.2 mph S5.1 kmh S 8.3 mph13.4 kmh 29.84 in1010.5 mb 0.00 in0.0 mm 0.00 in0.0 mm 0.00 in0.0 mm
04:20 PM 61.7°F16.5°C 54.8°F12.7°C 78% 3.5 mph SW5.6 kmh SW 9.2 mph14.8 kmh 29.84 in1010.5 mb 0.00 in0.0 mm 0.00 in0.0 mm 0.00 in0.0 mm
04:10 PM 61.7°F16.5°C 54.8°F12.7°C 78% 5.9 mph SW9.5 kmh SW 13.0 mph20.9 kmh 29.84 in1010.5 mb 0.00 in0.0 mm 0.00 in0.0 mm 0.00 in0.0 mm
04:00 PM 62.6°F17.0°C 54.2°F12.3°C 74% 5.2 mph SW8.4 kmh SW 11.4 mph18.3 kmh 29.85 in1010.8 mb 0.00 in0.0 mm 0.00 in0.0 mm 0.00 in0.0 mm
03:50 PM 62.8°F17.1°C 54.0°F12.2°C 73% 4.6 mph SW7.4 kmh SW 10.7 mph17.2 kmh 29.85 in1010.8 mb 0.00 in0.0 mm 0.00 in0.0 mm 0.00 in0.0 mm
03:40 PM 63.0°F17.2°C 53.4°F11.9°C 71% 5.4 mph WSW8.7 kmh WSW 11.4 mph18.3 kmh 29.85 in1010.8 mb 0.00 in0.0 mm 0.00 in0.0 mm 0.00 in0.0 mm
03:30 PM 63.5°F17.5°C 55.1°F12.8°C 74% 3.8 mph SSW6.1 kmh SSW 8.3 mph13.4 kmh 29.85 in1010.8 mb 0.00 in0.0 mm 0.00 in0.0 mm 0.00 in0.0 mm
03:20 PM 63.1°F17.3°C 54.7°F12.6°C 74% 4.5 mph S7.2 kmh S 9.2 mph14.8 kmh 29.86 in1011.2 mb 0.00 in0.0 mm 0.00 in0.0 mm 0.00 in0.0 mm
03:10 PM 62.6°F17.0°C 54.9°F12.7°C 76% 3.7 mph SSW6.0 kmh SSW 8.3 mph13.4 kmh 29.86 in1011.2 mb 0.00 in0.0 mm 0.00 in0.0 mm 0.00 in0.0 mm
03:00 PM 62.1°F16.7°C 54.1°F12.3°C 75% 3.6 mph SSW5.8 kmh SSW 7.6 mph12.2 kmh 29.86 in1011.2 mb 0.00 in0.0 mm 0.00 in0.0 mm 0.00 in0.0 mm
02:50 PM 61.9°F16.6°C 55.0°F12.8°C 78% 3.9 mph SSW6.3 kmh SSW 7.6 mph12.2 kmh 29.86 in1011.2 mb 0.00 in0.0 mm 0.00 in0.0 mm 0.00 in0.0 mm
02:40 PM 62.1°F16.7°C 54.1°F12.3°C 75% 3.5 mph SW5.6 kmh SW 7.6 mph12.2 kmh 29.86 in1011.2 mb 0.00 in0.0 mm 0.00 in0.0 mm 0.00 in0.0 mm
02:30 PM 62.2°F16.8°C 54.2°F12.3°C 75% 4.2 mph SW6.8 kmh SW 9.2 mph14.8 kmh 29.87 in1011.5 mb 0.00 in0.0 mm 0.00 in0.0 mm 0.00 in0.0 mm
02:20 PM 62.4°F16.9°C 54.4°F12.4°C 75% 4.8 mph SW7.7 kmh SW 10.7 mph17.2 kmh 29.87 in1011.5 mb 0.00 in0.0 mm 0.00 in0.0 mm 0.00 in0.0 mm
02:10 PM 62.6°F17.0°C 53.5°F11.9°C 72% 4.3 mph SW6.9 kmh SW 9.8 mph15.8 kmh 29.87 in1011.5 mb 0.00 in0.0 mm 0.00 in0.0 mm 0.00 in0.0 mm
02:00 PM 62.6°F17.0°C 53.5°F11.9°C 72% 5.1 mph WSW8.2 kmh WSW 10.7 mph17.2 kmh 29.88 in1011.9 mb 0.00 in0.0 mm 0.00 in0.0 mm 0.00 in0.0 mm
01:50 PM 63.0°F17.2°C 53.4°F11.9°C 71% 5.4 mph SSW8.7 kmh SSW 9.8 mph15.8 kmh 29.88 in1011.9 mb 0.00 in0.0 mm 0.00 in0.0 mm 0.00 in0.0 mm
01:40 PM 63.3°F17.4°C 53.8°F12.1°C 71% 5.5 mph SW8.9 kmh SW 10.7 mph17.2 kmh 29.88 in1011.9 mb 0.00 in0.0 mm 0.00 in0.0 mm 0.00 in0.0 mm
01:30 PM 62.4°F16.9°C 52.9°F11.6°C 71% 5.2 mph SW8.4 kmh SW 9.8 mph15.8 kmh 29.89 in1012.2 mb 0.00 in0.0 mm 0.00 in0.0 mm 0.00 in0.0 mm
01:20 PM 63.1°F17.3°C 52.8°F11.6°C 69% 3.5 mph SW5.6 kmh SW 9.2 mph14.8 kmh 29.89 in1012.2 mb 0.00 in0.0 mm 0.00 in0.0 mm 0.00 in0.0 mm
01:10 PM 63.1°F17.3°C 52.8°F11.6°C 69% 4.3 mph SSW6.9 kmh SSW 8.3 mph13.4 kmh 29.88 in1011.9 mb 0.00 in0.0 mm 0.00 in0.0 mm 0.00 in0.0 mm
01:00 PM 63.3°F17.4°C 51.8°F11.0°C 66% 5.0 mph SW8.0 kmh SW 9.2 mph14.8 kmh 29.88 in1011.9 mb 0.00 in0.0 mm 0.00 in0.0 mm 0.00 in0.0 mm
12:50 PM 63.5°F17.5°C 52.0°F11.1°C 66% 3.4 mph SW5.5 kmh SW 7.6 mph12.2 kmh 29.89 in1012.2 mb 0.00 in0.0 mm 0.00 in0.0 mm 0.00 in0.0 mm
12:40 PM 62.2°F16.8°C 50.8°F10.4°C 66% 2.7 mph S4.3 kmh S 5.4 mph8.7 kmh 29.89 in1012.2 mb 0.00 in0.0 mm 0.00 in0.0 mm 0.00 in0.0 mm
12:30 PM 62.4°F16.9°C 50.5°F10.3°C 65% 3.4 mph SSW5.5 kmh SSW 7.6 mph12.2 kmh 29.89 in1012.2 mb 0.00 in0.0 mm 0.00 in0.0 mm 0.00 in0.0 mm
12:20 PM 62.8°F17.1°C 50.9°F10.5°C 65% 4.3 mph SSW6.9 kmh SSW 8.3 mph13.4 kmh 29.89 in1012.2 mb 0.00 in0.0 mm 0.00 in0.0 mm 0.00 in0.0 mm
12:00 PM 64.4°F18.0°C 52.0°F11.1°C 64% 6.6 mph SW10.6 kmh SW 12.1 mph19.5 kmh 29.90 in1012.5 mb 0.00 in0.0 mm 0.00 in0.0 mm 0.00 in0.0 mm
11:50 AM 63.9°F17.7°C 50.2°F10.1°C 61% 4.4 mph SSW7.1 kmh SSW 9.2 mph14.8 kmh 29.90 in1012.5 mb 0.00 in0.0 mm 0.00 in0.0 mm 0.00 in0.0 mm
11:40 AM 63.7°F17.6°C 49.1°F9.5°C 59% 7.0 mph SW11.3 kmh SW 11.4 mph18.3 kmh 29.91 in1012.9 mb 0.00 in0.0 mm 0.00 in0.0 mm 0.00 in0.0 mm
11:30 AM 62.6°F17.0°C 49.4°F9.7°C 62% 6.1 mph SW9.8 kmh SW 10.7 mph17.2 kmh 29.91 in1012.9 mb 0.00 in0.0 mm 0.00 in0.0 mm 0.00 in0.0 mm
11:20 AM 63.1°F17.3°C 48.6°F9.2°C 59% 7.4 mph SW11.9 kmh SW 13.6 mph21.9 kmh 29.91 in1012.9 mb 0.00 in0.0 mm 0.00 in0.0 mm 0.00 in0.0 mm
11:10 AM 63.1°F17.3°C 48.1°F8.9°C 58% 6.8 mph SW10.9 kmh SW 13.0 mph20.9 kmh 29.91 in1012.9 mb 0.00 in0.0 mm 0.00 in0.0 mm 0.00 in0.0 mm
11:00 AM 63.0°F17.2°C 47.5°F8.6°C 57% 5.6 mph SW9.0 kmh SW 10.7 mph17.2 kmh 29.91 in1012.9 mb 0.00 in0.0 mm 0.00 in0.0 mm 0.00 in0.0 mm
10:50 AM 62.8°F17.1°C 47.8°F8.8°C 58% 5.8 mph SW9.3 kmh SW 13.0 mph20.9 kmh 29.91 in1012.9 mb 0.00 in0.0 mm 0.00 in0.0 mm 0.00 in0.0 mm
10:40 AM 62.8°F17.1°C 47.3°F8.5°C 57% 6.4 mph SW10.3 kmh SW 11.4 mph18.3 kmh 29.91 in1012.9 mb 0.00 in0.0 mm 0.00 in0.0 mm 0.00 in0.0 mm
10:30 AM 62.8°F17.1°C 46.4°F8.0°C 55% 5.9 mph SW9.5 kmh SW 12.1 mph19.5 kmh 29.91 in1012.9 mb 0.00 in0.0 mm 0.00 in0.0 mm 0.00 in0.0 mm
10:20 AM 63.0°F17.2°C 48.4°F9.1°C 59% 4.1 mph SSW6.6 kmh SSW 10.7 mph17.2 kmh 29.91 in1012.9 mb 0.00 in0.0 mm 0.00 in0.0 mm 0.00 in0.0 mm
10:10 AM 63.1°F17.3°C 50.4°F10.2°C 63% 3.9 mph S6.3 kmh S 10.7 mph17.2 kmh 29.91 in1012.9 mb 0.00 in0.0 mm 0.00 in0.0 mm 0.00 in0.0 mm
10:00 AM 63.9°F17.7°C 48.8°F9.3°C 58% 3.4 mph SSW5.5 kmh SSW 9.8 mph15.8 kmh 29.91 in1012.9 mb 0.00 in0.0 mm 0.00 in0.0 mm 0.00 in0.0 mm
09:50 AM 65.5°F18.6°C 47.4°F8.6°C 52% 2.0 mph SW3.2 kmh SW 6.9 mph11.1 kmh 29.90 in1012.5 mb 0.00 in0.0 mm 0.00 in0.0 mm 0.00 in0.0 mm
09:40 AM 64.8°F18.2°C 47.2°F8.4°C 53% 2.6 mph WSW4.2 kmh WSW 8.3 mph13.4 kmh 29.90 in1012.5 mb 0.00 in0.0 mm 0.00 in0.0 mm 0.00 in0.0 mm
09:30 AM 64.6°F18.1°C 47.1°F8.4°C 53% 2.1 mph W3.4 kmh W 6.0 mph9.7 kmh 29.91 in1012.9 mb 0.00 in0.0 mm 0.00 in0.0 mm 0.00 in0.0 mm
09:20 AM 63.5°F17.5°C 46.1°F7.8°C 53% 3.5 mph SW5.6 kmh SW 8.3 mph13.4 kmh 29.91 in1012.9 mb 0.00 in0.0 mm 0.00 in0.0 mm 0.00 in0.0 mm
09:10 AM 65.1°F18.4°C 47.1°F8.4°C 52% 2.3 mph W3.7 kmh W 6.0 mph9.7 kmh 29.91 in1012.9 mb 0.00 in0.0 mm 0.00 in0.0 mm 0.00 in0.0 mm
09:00 AM 64.2°F17.9°C 46.2°F7.9°C 52% 2.7 mph WSW4.3 kmh WSW 7.6 mph12.2 kmh 29.91 in1012.9 mb 0.00 in0.0 mm 0.00 in0.0 mm 0.00 in0.0 mm
08:50 AM 63.5°F17.5°C 48.0°F8.9°C 57% 2.3 mph WSW3.7 kmh WSW 6.0 mph9.7 kmh 29.91 in1012.9 mb 0.00 in0.0 mm 0.00 in0.0 mm 0.00 in0.0 mm
08:40 AM 61.0°F16.1°C 48.3°F9.1°C 63% 1.8 mph SW2.9 kmh SW 5.4 mph8.7 kmh 29.92 in1013.2 mb 0.00 in0.0 mm 0.00 in0.0 mm 0.00 in0.0 mm
08:30 AM 59.5°F15.3°C 50.1°F10.1°C 71% 1.1 mph SE1.8 kmh SE 3.1 mph5.0 kmh 29.92 in1013.2 mb 0.00 in0.0 mm 0.00 in0.0 mm 0.00 in0.0 mm
08:20 AM 58.3°F14.6°C 49.7°F9.8°C 73% 0.8 mph E1.3 kmh E 3.1 mph5.0 kmh 29.92 in1013.2 mb 0.00 in0.0 mm 0.00 in0.0 mm 0.00 in0.0 mm
08:10 AM 57.7°F14.3°C 49.9°F9.9°C 75% 1.0 mph S1.6 kmh S 3.1 mph5.0 kmh 29.93 in1013.5 mb 0.00 in0.0 mm 0.00 in0.0 mm 0.00 in0.0 mm
08:00 AM 56.5°F13.6°C 50.1°F10.1°C 79% 0.8 mph E1.3 kmh E 3.1 mph5.0 kmh 29.92 in1013.2 mb 0.00 in0.0 mm 0.00 in0.0 mm 0.00 in0.0 mm
07:50 AM 55.0°F12.8°C 49.0°F9.4°C 80% 1.0 mph E1.6 kmh E 3.8 mph6.1 kmh 29.93 in1013.5 mb 0.00 in0.0 mm 0.00 in0.0 mm 0.00 in0.0 mm
07:40 AM 54.3°F12.4°C 49.0°F9.4°C 82% 1.0 mph NE1.6 kmh NE 3.1 mph5.0 kmh 29.93 in1013.5 mb 0.00 in0.0 mm 0.00 in0.0 mm 0.00 in0.0 mm
07:30 AM 52.2°F11.2°C 47.2°F8.4°C 83% 1.0 mph ESE1.6 kmh ESE 3.8 mph6.1 kmh 29.93 in1013.5 mb 0.00 in0.0 mm 0.00 in0.0 mm 0.00 in0.0 mm
07:20 AM 51.3°F10.7°C 47.8°F8.8°C 88% 1.4 mph E2.3 kmh E 3.8 mph6.1 kmh 29.93 in1013.5 mb 0.00 in0.0 mm 0.00 in0.0 mm 0.00 in0.0 mm
07:10 AM 50.5°F10.3°C 49.4°F9.7°C 96% 0.4 mph E0.6 kmh E 2.2 mph3.5 kmh 29.93 in1013.5 mb 0.00 in0.0 mm 0.00 in0.0 mm 0.00 in0.0 mm
07:00 AM 48.7°F9.3°C 48.5°F9.2°C 99% 0.2 mph E0.3 kmh E 1.6 mph2.6 kmh 29.93 in1013.5 mb 0.00 in0.0 mm 0.00 in0.0 mm 0.00 in0.0 mm
06:50 AM 48.4°F9.1°C 48.1°F8.9°C 99% Calm Calm 0.7 mph1.1 kmh 29.93 in1013.5 mb 0.00 in0.0 mm 0.00 in0.0 mm 0.00 in0.0 mm
06:40 AM 46.8°F8.2°C 46.5°F8.1°C 99% 0.2 mph S0.3 kmh S 1.6 mph2.6 kmh 29.93 in1013.5 mb 0.00 in0.0 mm 0.00 in0.0 mm 0.00 in0.0 mm
06:30 AM 45.9°F7.7°C 45.1°F7.3°C 97% Calm Calm 0.7 mph1.1 kmh 29.93 in1013.5 mb 0.00 in0.0 mm 0.00 in0.0 mm 0.00 in0.0 mm
06:20 AM 43.9°F6.6°C 43.4°F6.3°C 98% 0.1 mph NE0.2 kmh NE 2.2 mph3.5 kmh 29.93 in1013.5 mb 0.00 in0.0 mm 0.00 in0.0 mm 0.00 in0.0 mm
06:10 AM 42.8°F6.0°C 42.3°F5.7°C 98% Calm Calm -- 29.93 in1013.5 mb 0.00 in0.0 mm 0.00 in0.0 mm 0.00 in0.0 mm
06:00 AM 41.9°F5.5°C 41.6°F5.3°C 99% 0.1 mph S0.2 kmh S 1.6 mph2.6 kmh 29.93 in1013.5 mb 0.00 in0.0 mm 0.00 in0.0 mm 0.00 in0.0 mm
05:50 AM 40.8°F4.9°C 40.6°F4.8°C 99% 0.3 mph E0.5 kmh E 1.6 mph2.6 kmh 29.93 in1013.5 mb 0.00 in0.0 mm 0.00 in0.0 mm 0.00 in0.0 mm
05:40 AM 40.1°F4.5°C 39.8°F4.3°C 99% Calm Calm 1.6 mph2.6 kmh 29.93 in1013.5 mb 0.00 in0.0 mm 0.00 in0.0 mm 0.00 in0.0 mm
05:30 AM 39.7°F4.3°C 39.5°F4.2°C 99% 0.4 mph ENE0.6 kmh ENE 2.2 mph3.5 kmh 29.93 in1013.5 mb 0.00 in0.0 mm 0.00 in0.0 mm 0.00 in0.0 mm
05:20 AM 39.6°F4.2°C 39.3°F4.1°C 99% 0.1 mph ENE0.2 kmh ENE 1.6 mph2.6 kmh 29.93 in1013.5 mb 0.00 in0.0 mm 0.00 in0.0 mm 0.00 in0.0 mm
05:10 AM 39.6°F4.2°C 39.3°F4.1°C 99% 0.7 mph SW1.1 kmh SW 3.1 mph5.0 kmh 29.92 in1013.2 mb 0.00 in0.0 mm 0.00 in0.0 mm 0.00 in0.0 mm
05:00 AM 39.7°F4.3°C 39.5°F4.2°C 99% 0.8 mph SSE1.3 kmh SSE 3.1 mph5.0 kmh 29.92 in1013.2 mb 0.00 in0.0 mm 0.00 in0.0 mm 0.00 in0.0 mm
04:50 AM 39.9°F4.4°C 39.7°F4.3°C 99% 0.9 mph S1.4 kmh S 3.1 mph5.0 kmh 29.92 in1013.2 mb 0.00 in0.0 mm 0.00 in0.0 mm 0.00 in0.0 mm
04:40 AM 40.3°F4.6°C 40.0°F4.4°C 99% 0.2 mph S0.3 kmh S 2.2 mph3.5 kmh 29.92 in1013.2 mb 0.00 in0.0 mm 0.00 in0.0 mm 0.00 in0.0 mm
04:30 AM 40.3°F4.6°C 40.0°F4.4°C 99% Calm Calm 1.6 mph2.6 kmh 29.92 in1013.2 mb 0.00 in0.0 mm 0.00 in0.0 mm 0.00 in0.0 mm
04:20 AM 40.5°F4.7°C 40.2°F4.6°C 99% 0.1 mph NE0.2 kmh NE 1.6 mph2.6 kmh 29.91 in1012.9 mb 0.00 in0.0 mm 0.00 in0.0 mm 0.00 in0.0 mm
04:10 AM 40.5°F4.7°C 40.2°F4.6°C 99% 1.2 mph NE1.9 kmh NE 3.8 mph6.1 kmh 29.91 in1012.9 mb 0.00 in0.0 mm 0.00 in0.0 mm 0.00 in0.0 mm
04:00 AM 40.3°F4.6°C 40.0°F4.4°C 99% 0.4 mph ENE0.6 kmh ENE 2.2 mph3.5 kmh 29.91 in1012.9 mb 0.00 in0.0 mm 0.00 in0.0 mm 0.00 in0.0 mm
03:50 AM 40.3°F4.6°C 40.0°F4.4°C 99% Calm Calm -- 29.91 in1012.9 mb 0.00 in0.0 mm 0.00 in0.0 mm 0.00 in0.0 mm
03:40 AM 40.5°F4.7°C 40.2°F4.6°C 99% 0.3 mph SSE0.5 kmh SSE 2.2 mph3.5 kmh 29.91 in1012.9 mb 0.00 in0.0 mm 0.00 in0.0 mm 0.00 in0.0 mm
03:30 AM 40.8°F4.9°C 40.6°F4.8°C 99% 0.3 mph SSW0.5 kmh SSW 2.2 mph3.5 kmh 29.91 in1012.9 mb 0.00 in0.0 mm 0.00 in0.0 mm 0.00 in0.0 mm
03:20 AM 41.0°F5.0°C 40.7°F4.8°C 99% 0.1 mph SE0.2 kmh SE 1.6 mph2.6 kmh 29.91 in1012.9 mb 0.00 in0.0 mm 0.00 in0.0 mm 0.00 in0.0 mm
03:10 AM 41.2°F5.1°C 40.9°F4.9°C 99% Calm Calm 1.6 mph2.6 kmh 29.91 in1012.9 mb 0.00 in0.0 mm 0.00 in0.0 mm 0.00 in0.0 mm
03:00 AM 41.4°F5.2°C 41.1°F5.1°C 99% Calm Calm 0.7 mph1.1 kmh 29.91 in1012.9 mb 0.00 in0.0 mm 0.00 in0.0 mm 0.00 in0.0 mm
02:50 AM 41.7°F5.4°C 41.5°F5.3°C 99% 0.1 mph S0.2 kmh S 1.6 mph2.6 kmh 29.91 in1012.9 mb 0.00 in0.0 mm 0.00 in0.0 mm 0.00 in0.0 mm
02:40 AM 41.5°F5.3°C 41.3°F5.2°C 99% 0.1 mph SE0.2 kmh SE 2.2 mph3.5 kmh 29.91 in1012.9 mb 0.00 in0.0 mm 0.00 in0.0 mm 0.00 in0.0 mm
02:30 AM 41.5°F5.3°C 41.3°F5.2°C 99% 1.0 mph NE1.6 kmh NE 3.8 mph6.1 kmh 29.91 in1012.9 mb 0.00 in0.0 mm 0.00 in0.0 mm 0.00 in0.0 mm
02:20 AM 41.9°F5.5°C 41.6°F5.3°C 99% 0.2 mph ENE0.3 kmh ENE 2.2 mph3.5 kmh 29.91 in1012.9 mb 0.00 in0.0 mm 0.00 in0.0 mm 0.00 in0.0 mm
02:10 AM 41.9°F5.5°C 41.6°F5.3°C 99% 0.5 mph SSE0.8 kmh SSE 3.1 mph5.0 kmh 29.91 in1012.9 mb 0.00 in0.0 mm 0.00 in0.0 mm 0.00 in0.0 mm
02:00 AM 42.1°F5.6°C 41.8°F5.4°C 99% 0.7 mph SSW1.1 kmh SSW 3.1 mph5.0 kmh 29.91 in1012.9 mb 0.00 in0.0 mm 0.00 in0.0 mm 0.00 in0.0 mm
01:50 AM 42.6°F5.9°C 42.4°F5.8°C 99% 0.1 mph SSW0.2 kmh SSW 2.2 mph3.5 kmh 29.91 in1012.9 mb 0.00 in0.0 mm 0.00 in0.0 mm 0.00 in0.0 mm
01:40 AM 42.4°F5.8°C 42.2°F5.7°C 99% 0.2 mph SSE0.3 kmh SSE 2.2 mph3.5 kmh 29.91 in1012.9 mb 0.00 in0.0 mm 0.00 in0.0 mm 0.00 in0.0 mm
01:30 AM 43.0°F6.1°C 42.5°F5.8°C 98% 0.1 mph NE0.2 kmh NE 1.6 mph2.6 kmh 29.92 in1013.2 mb 0.00 in0.0 mm 0.00 in0.0 mm 0.00 in0.0 mm
01:20 AM 43.2°F6.2°C 42.6°F5.9°C 98% 0.3 mph S0.5 kmh S 2.2 mph3.5 kmh 29.92 in1013.2 mb 0.00 in0.0 mm 0.00 in0.0 mm 0.00 in0.0 mm
01:10 AM 43.2°F6.2°C 42.6°F5.9°C 98% 0.6 mph W1.0 kmh W 2.2 mph3.5 kmh 29.92 in1013.2 mb 0.00 in0.0 mm 0.00 in0.0 mm 0.00 in0.0 mm
01:00 AM 43.3°F6.3°C 42.8°F6.0°C 98% 1.7 mph NE2.7 kmh NE 3.8 mph6.1 kmh 29.92 in1013.2 mb 0.00 in0.0 mm 0.00 in0.0 mm 0.00 in0.0 mm
12:50 AM 43.7°F6.5°C 43.2°F6.2°C 98% 0.8 mph E1.3 kmh E 3.1 mph5.0 kmh 29.92 in1013.2 mb 0.00 in0.0 mm 0.00 in0.0 mm 0.00 in0.0 mm
12:40 AM 43.7°F6.5°C 43.2°F6.2°C 98% 0.6 mph SSE1.0 kmh SSE 3.1 mph5.0 kmh 29.92 in1013.2 mb 0.00 in0.0 mm 0.00 in0.0 mm 0.00 in0.0 mm
12:30 AM 44.1°F6.7°C 43.5°F6.4°C 98% 0.6 mph NNE1.0 kmh NNE 3.1 mph5.0 kmh 29.92 in1013.2 mb 0.00 in0.0 mm 0.00 in0.0 mm 0.00 in0.0 mm
12:20 AM 44.1°F6.7°C 43.5°F6.4°C 98% 1.1 mph ENE1.8 kmh ENE 3.1 mph5.0 kmh 29.92 in1013.2 mb 0.00 in0.0 mm 0.00 in0.0 mm 0.00 in0.0 mm
12:10 AM 44.1°F6.7°C 43.5°F6.4°C 98% Calm Calm 0.7 mph1.1 kmh 29.92 in1013.2 mb 0.00 in0.0 mm 0.00 in0.0 mm 0.00 in0.0 mm
12:00 AM 44.2°F6.8°C 43.7°F6.5°C 98% 0.3 mph ENE0.5 kmh ENE 2.2 mph3.5 kmh 29.92 in1013.2 mb 0.00 in0.0 mm 0.00 in0.0 mm 0.00 in0.0 mm